Kezdőlap
METAR-TAF:

METAR-TAF

Repülőterek :

Wings Field

Philadelphia-Blue Bell, Pennsylvania, Amerikai Egyesült Államok

földrajzi szélesség: 40-08-15N, földrajzi hosszúság: 075-15-54W, magasság: 92 m

Jelenlegi meteorológiai megfigyelések

A jelentés 17 perccel ezelõtt készült, 17:35 UTC
Délnyugati szél 7 kt
Hőmérséklet 12°C
Páratartalom 19%
Légköri nyomás 1022 hPa
Látótávolság: 16.1 km
Derült ég

METAR: KLOM 231735Z AUTO 23007KT 10SM CLR 12/M11 A3019 RMK AO2 T01161110

Idő: 12:52 (17:52 UTC)


TAF: hiányzik

Meteorológiai megfigyelések és előrejelzések több, mint 4000 repülőtéren (METAR és TAF jelentéseket).

A térképen piros és sárga pontok jelzik az elérhető meteorológiai állomásokat.

Mozgassa az egeret a pont fölött, hogy megjelenjen az állomás neve.

Azután kattintson az időjárási megfigyelések és előrejelzések megtekintéséhez.

A térkép megváltoztatása: kattintson a fekete keresztel jelölt zöld gombra ráközelítéshez, a vonallal jelölt zöld gombra távolításhoz, vagy a zöld nyilakra a szomszédos térképek eléréséhez.


METAR-TAF: